Time;durP1;ratioP1;P1;durP2;ratioP2;P2;SDS_P1;SDS_P2;PMS_P1;PMS_P2;Temp;Humidity;BMP_temperature;BMP_pressure;BME280_temperature;BME280_humidity;BME280_pressure;Samples;Min_cycle;Max_cycle;Signal;HPM_P1;HPM_P2
2023/01/30 00:01:43;;;;;;;27.17;17.60;;;-2.40;99.90;;;;;;4984252;28;20485;-59
2023/01/30 00:04:11;;;;;;;33.78;18.25;;;-2.40;99.90;;;;;;4996604;28;20501;-58
2023/01/30 00:06:40;;;;;;;34.55;18.20;;;-2.30;99.90;;;;;;4994197;28;20026;-59
2023/01/30 00:09:07;;;;;;;32.22;17.48;;;-2.30;99.90;;;;;;4992443;28;20037;-58
2023/01/30 00:11:32;;;;;;;28.92;16.02;;;-2.30;99.90;;;;;;4993629;28;20042;-59
2023/01/30 00:13:58;;;;;;;31.17;16.65;;;-2.20;99.90;;;;;;4989383;28;20031;-59
2023/01/30 00:16:24;;;;;;;31.13;16.35;;;-2.20;99.90;;;;;;4996343;28;20116;-59
2023/01/30 00:18:50;;;;;;;28.05;16.45;;;-2.20;99.90;;;;;;4997900;28;20117;-60
2023/01/30 00:21:16;;;;;;;24.33;15.32;;;-2.10;99.90;;;;;;4996551;28;20037;-58
2023/01/30 00:23:42;;;;;;;23.58;14.18;;;-2.00;99.90;;;;;;5001027;28;20930;-59
2023/01/30 00:26:09;;;;;;;22.63;14.48;;;-1.90;99.90;;;;;;5000466;28;20041;-60
2023/01/30 00:28:35;;;;;;;25.42;15.45;;;-1.80;99.90;;;;;;4995315;28;20390;-60
2023/01/30 00:31:00;;;;;;;19.80;14.05;;;-1.70;99.90;;;;;;5002262;28;20027;-58
2023/01/30 00:33:27;;;;;;;30.15;15.73;;;-1.60;99.90;;;;;;4995921;28;20037;-58
2023/01/30 00:35:54;;;;;;;21.15;13.90;;;-1.60;99.90;;;;;;4995544;28;20038;-59
2023/01/30 00:38:21;;;;;;;25.90;14.43;;;-1.50;99.90;;;;;;4999877;28;20034;-59
2023/01/30 00:40:47;;;;;;;23.27;13.75;;;-1.50;99.90;;;;;;4998558;28;20018;-59
2023/01/30 00:48:43;;;;;;;26.77;14.18;;;-1.40;99.90;;;;;;4999545;28;20104;-59
2023/01/30 00:51:09;;;;;;;28.98;14.93;;;-1.40;99.90;;;;;;4995181;28;20502;-60
2023/01/30 00:53:35;;;;;;;24.40;14.38;;;-1.30;99.90;;;;;;4992206;28;20050;-58
2023/01/30 00:56:00;;;;;;;24.25;14.60;;;-1.30;99.90;;;;;;4986313;28;20398;-58
2023/01/30 00:58:26;;;;;;;26.60;15.18;;;-1.30;99.90;;;;;;4992717;28;20033;-58
2023/01/30 01:00:52;;;;;;;25.20;15.25;;;-1.30;99.90;;;;;;5001327;28;20512;-59
2023/01/30 01:03:18;;;;;;;26.67;15.18;;;-1.30;99.90;;;;;;5004213;28;20026;-60
2023/01/30 01:05:44;;;;;;;30.90;16.27;;;-1.20;99.90;;;;;;4999470;28;20509;-59
2023/01/30 01:08:10;;;;;;;24.95;15.05;;;-1.20;99.90;;;;;;4993090;28;20108;-60
2023/01/30 01:10:36;;;;;;;24.02;14.77;;;-1.30;99.90;;;;;;4995456;28;20407;-58
2023/01/30 01:13:03;;;;;;;25.50;16.38;;;-1.30;99.90;;;;;;4992293;28;20026;-60
2023/01/30 01:15:29;;;;;;;30.40;17.13;;;-1.30;99.90;;;;;;4990373;28;20567;-60
2023/01/30 01:17:55;;;;;;;29.77;16.48;;;-1.30;99.90;;;;;;4993359;28;20066;-60
2023/01/30 01:20:21;;;;;;;26.77;16.42;;;-1.30;99.90;;;;;;4992234;28;20023;-59
2023/01/30 01:22:50;;;;;;;28.33;17.15;;;-1.30;99.90;;;;;;4990547;28;20026;-59
2023/01/30 01:25:18;;;;;;;26.73;15.82;;;-1.30;99.90;;;;;;4996594;28;20552;-57
2023/01/30 01:27:44;;;;;;;31.70;17.58;;;-1.30;99.90;;;;;;4991939;28;20042;-58
2023/01/30 01:30:10;;;;;;;30.88;16.90;;;-1.20;99.90;;;;;;4996328;28;20375;-59
2023/01/30 01:32:36;;;;;;;27.60;16.05;;;-1.30;99.90;;;;;;4997435;28;20022;-59
2023/01/30 01:35:01;;;;;;;30.70;16.98;;;-1.20;99.90;;;;;;4996627;28;20026;-59
2023/01/30 01:37:27;;;;;;;24.85;15.80;;;-1.20;99.90;;;;;;4988834;28;20112;-60
2023/01/30 01:42:38;;;;;;;27.50;16.60;;;-1.20;99.90;;;;;;4989844;28;20500;-59
2023/01/30 01:45:13;;;;;;;32.20;18.60;;;-1.20;99.90;;;;;;4993092;28;20077;-59
2023/01/30 01:47:44;;;;;;;26.38;15.60;;;-1.20;99.90;;;;;;4993290;28;20030;-59
2023/01/30 01:50:17;;;;;;;30.55;15.82;;;-1.20;99.90;;;;;;4989288;28;20495;-59
2023/01/30 01:52:43;;;;;;;26.60;15.45;;;-1.20;99.90;;;;;;4992367;28;20069;-58
2023/01/30 01:55:11;;;;;;;28.90;15.45;;;-1.10;99.90;;;;;;4992099;28;20022;-58
2023/01/30 01:57:48;;;;;;;30.40;16.05;;;-1.10;99.90;;;;;;4988408;28;20023;-59
2023/01/30 02:00:19;;;;;;;27.10;16.02;;;-1.10;99.90;;;;;;4978645;28;20031;-59
2023/01/30 02:03:03;;;;;;;;;;;-1.10;99.90;;;;;;4981067;28;20097;-58
2023/01/30 02:05:33;;;;;;;30.83;15.30;;;-1.10;99.90;;;;;;4998853;28;20441;-58
2023/01/30 02:08:00;;;;;;;27.15;14.65;;;-1.10;99.90;;;;;;4996052;28;20121;-58
2023/01/30 02:10:32;;;;;;;25.83;15.38;;;-1.10;99.90;;;;;;4991034;28;20025;-58
2023/01/30 02:12:58;;;;;;;22.98;14.07;;;-1.10;99.90;;;;;;4987783;28;20109;-58
2023/01/30 02:15:23;;;;;;;27.00;15.35;;;-1.10;99.90;;;;;;4996792;28;20205;-59
2023/01/30 02:17:49;;;;;;;31.83;17.00;;;-1.10;99.90;;;;;;4999568;28;20082;-60
2023/01/30 02:20:39;;;;;;;26.42;15.32;;;-1.10;99.90;;;;;;4998640;28;20069;-59
2023/01/30 02:23:11;;;;;;;29.73;16.58;;;-1.10;99.90;;;;;;5002683;28;20023;-59
2023/01/30 02:25:55;;;;;;;28.10;15.80;;;-1.10;99.90;;;;;;4994460;28;20034;-58
2023/01/30 02:28:58;;;;;;;24.92;13.57;;;-1.10;99.90;;;;;;5004931;28;20037;-59
2023/01/30 02:31:31;;;;;;;28.40;16.35;;;-1.00;99.90;;;;;;5002647;28;20088;-59
2023/01/30 02:34:16;;;;;;;24.83;15.63;;;-1.00;99.90;;;;;;4995178;28;20529;-59
2023/01/30 02:37:00;;;;;;;26.52;14.45;;;-1.00;99.90;;;;;;5000040;28;20022;-59
2023/01/30 02:39:57;;;;;;;26.35;15.10;;;-1.00;99.90;;;;;;5002386;28;20117;-60
2023/01/30 02:42:33;;;;;;;26.38;14.35;;;-1.00;99.90;;;;;;5004771;28;20125;-58
2023/01/30 02:45:02;;;;;;;25.73;15.48;;;-1.00;99.90;;;;;;4997936;28;20403;-59
2023/01/30 02:47:36;;;;;;;31.23;15.80;;;-1.00;99.90;;;;;;4996148;28;20060;-59
2023/01/30 02:50:17;;;;;;;25.75;15.27;;;-1.00;99.90;;;;;;4992415;28;20030;-59
2023/01/30 02:52:44;;;;;;;32.60;15.32;;;-1.00;99.90;;;;;;4988166;28;20052;-59
2023/01/30 02:55:21;;;;;;;24.67;15.55;;;-1.00;99.90;;;;;;4987274;28;20015;-60
2023/01/30 02:57:47;;;;;;;24.02;15.00;;;-1.00;99.90;;;;;;4990222;28;20030;-59
2023/01/30 03:00:34;;;;;;;23.77;14.27;;;-1.00;99.90;;;;;;4982974;28;20022;-59
2023/01/30 03:03:20;;;;;;;24.63;15.13;;;-1.00;99.90;;;;;;4976724;28;20022;-58
2023/01/30 03:06:07;;;;;;;24.45;14.93;;;-0.90;99.90;;;;;;4975650;28;20129;-59
2023/01/30 03:09:20;;;;;;;24.73;14.85;;;-0.90;99.90;;;;;;4978895;28;20045;-59
2023/01/30 03:12:04;;;;;;;26.67;15.43;;;-0.90;99.90;;;;;;4980108;28;20113;-57
2023/01/30 03:14:46;;;;;;;25.35;14.75;;;-0.90;99.90;;;;;;4982397;28;20522;-58
2023/01/30 03:17:14;;;;;;;31.20;16.85;;;-0.90;99.90;;;;;;4980021;28;20279;-59
2023/01/30 03:19:41;;;;;;;29.17;15.10;;;-0.90;99.90;;;;;;4979994;28;20073;-58
2023/01/30 03:22:06;;;;;;;25.58;15.38;;;-0.90;99.90;;;;;;4982601;28;20357;-60
2023/01/30 03:24:32;;;;;;;23.33;13.27;;;-0.90;99.90;;;;;;4981867;28;20046;-59
2023/01/30 03:27:03;;;;;;;29.13;16.17;;;-0.90;99.90;;;;;;4981278;28;20057;-60
2023/01/30 03:29:28;;;;;;;26.13;16.38;;;-0.80;99.90;;;;;;4981618;28;20042;-59
2023/01/30 03:31:54;;;;;;;30.90;16.65;;;-0.80;99.90;;;;;;4983283;28;20030;-61
2023/01/30 03:34:19;;;;;;;27.90;15.40;;;-0.80;99.90;;;;;;4977944;28;20069;-59
2023/01/30 03:36:46;;;;;;;25.42;14.90;;;-0.80;99.90;;;;;;4973872;28;20033;-58
2023/01/30 03:39:12;;;;;;;27.33;15.45;;;-0.80;99.90;;;;;;4977178;28;20043;-60
2023/01/30 03:41:38;;;;;;;27.10;17.17;;;-0.80;99.90;;;;;;4979671;28;20086;-58
2023/01/30 03:44:06;;;;;;;24.60;14.23;;;-0.80;99.90;;;;;;4979180;28;20035;-60
2023/01/30 03:46:31;;;;;;;31.08;15.55;;;-0.70;99.90;;;;;;4977335;28;20033;-59
2023/01/30 03:48:57;;;;;;;26.25;14.77;;;-0.60;99.90;;;;;;4975126;28;20030;-58
2023/01/30 03:51:23;;;;;;;25.88;14.35;;;-0.70;99.90;;;;;;4979930;28;20073;-59
2023/01/30 03:53:48;;;;;;;27.30;14.57;;;-0.60;99.90;;;;;;4980306;28;20084;-60
2023/01/30 03:56:14;;;;;;;23.63;14.80;;;-0.60;99.90;;;;;;4978641;28;20030;-58
2023/01/30 03:58:40;;;;;;;21.77;13.60;;;-0.60;99.90;;;;;;4986238;28;20034;-58
2023/01/30 04:01:05;;;;;;;25.90;14.43;;;-0.50;99.90;;;;;;4980052;28;20018;-59
2023/01/30 04:03:33;;;;;;;25.15;14.88;;;-0.50;99.90;;;;;;4975233;28;20034;-59
2023/01/30 04:05:59;;;;;;;23.88;14.70;;;-0.50;99.90;;;;;;4985816;28;20037;-59
2023/01/30 04:08:24;;;;;;;25.00;15.32;;;-0.50;99.90;;;;;;4987080;28;20129;-59
2023/01/30 04:10:50;;;;;;;26.23;15.55;;;-0.50;99.90;;;;;;4995365;28;20423;-58
2023/01/30 04:13:16;;;;;;;23.15;14.70;;;-0.40;99.90;;;;;;4997991;28;20038;-60
2023/01/30 04:19:03;;;;;;;24.30;14.38;;;-0.40;99.90;;;;;;4998530;28;20037;-60
2023/01/30 04:21:29;;;;;;;24.50;14.95;;;-0.40;99.90;;;;;;4998689;28;20034;-59
2023/01/30 04:23:54;;;;;;;22.83;13.25;;;-0.30;99.90;;;;;;5000158;28;20049;-60
2023/01/30 04:26:20;;;;;;;24.27;14.90;;;-0.40;99.90;;;;;;5002153;28;20086;-60
2023/01/30 04:28:45;;;;;;;19.75;13.10;;;-0.30;99.90;;;;;;4990836;28;20027;-59
2023/01/30 04:31:11;;;;;;;16.42;11.82;;;-0.30;99.90;;;;;;4989972;28;20019;-58
2023/01/30 04:33:38;;;;;;;19.73;12.68;;;-0.10;99.90;;;;;;4988534;28;20041;-58
2023/01/30 04:36:06;;;;;;;21.45;13.05;;;0.00;99.90;;;;;;4994258;28;20029;-59
2023/01/30 04:38:33;;;;;;;18.30;12.65;;;0.10;99.90;;;;;;4995978;28;20554;-59
2023/01/30 04:40:59;;;;;;;19.63;13.07;;;0.10;99.90;;;;;;4991608;28;20134;-59
2023/01/30 04:43:26;;;;;;;16.13;11.52;;;0.20;99.90;;;;;;4983762;28;20113;-59
2023/01/30 04:45:52;;;;;;;19.95;13.15;;;0.20;99.90;;;;;;4998770;28;20511;-58
2023/01/30 04:48:19;;;;;;;20.40;12.93;;;0.20;99.90;;;;;;5000023;28;20046;-59
2023/01/30 04:50:48;;;;;;;26.10;15.20;;;0.20;99.90;;;;;;4995062;28;20498;-59
2023/01/30 04:53:14;;;;;;;19.95;12.70;;;0.20;99.90;;;;;;4992360;28;20023;-59
2023/01/30 04:55:40;;;;;;;20.80;14.05;;;0.20;99.90;;;;;;4997228;28;20030;-58
2023/01/30 04:58:05;;;;;;;18.80;12.23;;;0.20;99.90;;;;;;5003149;28;20036;-58
2023/01/30 05:00:32;;;;;;;19.70;12.40;;;0.20;99.90;;;;;;5000201;28;20099;-57
2023/01/30 05:02:57;;;;;;;18.48;12.93;;;0.20;99.90;;;;;;4995597;28;20038;-57
2023/01/30 05:05:24;;;;;;;21.08;12.20;;;0.30;99.90;;;;;;4992796;28;20097;-59
2023/01/30 05:07:50;;;;;;;21.33;13.93;;;0.30;99.90;;;;;;4999378;28;20121;-58
2023/01/30 05:10:16;;;;;;;17.92;12.50;;;0.40;99.90;;;;;;4998495;28;20101;-58
2023/01/30 05:12:43;;;;;;;23.42;12.80;;;0.40;99.90;;;;;;4996347;28;20037;-59
2023/01/30 05:15:09;;;;;;;21.20;13.70;;;0.40;99.90;;;;;;4992396;28;20026;-59
2023/01/30 05:17:35;;;;;;;15.63;11.52;;;0.40;99.90;;;;;;5002842;28;20036;-62
2023/01/30 05:20:01;;;;;;;18.15;12.43;;;0.40;99.90;;;;;;4999298;28;20499;-61
2023/01/30 05:22:26;;;;;;;19.40;14.30;;;0.40;99.90;;;;;;5001949;28;20092;-58
2023/01/30 05:24:52;;;;;;;19.63;12.98;;;0.40;99.90;;;;;;4999965;28;20037;-57
2023/01/30 05:27:18;;;;;;;21.48;13.73;;;0.50;99.90;;;;;;4997108;28;20030;-59
2023/01/30 05:29:43;;;;;;;21.23;13.40;;;0.50;99.90;;;;;;4997235;28;20493;-59
2023/01/30 05:32:17;;;;;;;19.73;13.60;;;0.50;99.90;;;;;;4996692;28;20034;-58
2023/01/30 05:34:42;;;;;;;20.92;13.65;;;0.50;99.90;;;;;;4996045;28;20054;-58
2023/01/30 05:37:09;;;;;;;21.83;14.40;;;0.50;99.90;;;;;;4994869;28;20025;-58
2023/01/30 05:39:35;;;;;;;19.70;12.55;;;0.50;99.90;;;;;;4991434;28;20032;-58
2023/01/30 05:42:02;;;;;;;23.58;13.15;;;0.60;99.90;;;;;;4989566;28;20101;-59
2023/01/30 05:44:27;;;;;;;25.27;14.18;;;0.60;99.90;;;;;;4988250;28;20418;-59
2023/01/30 05:46:53;;;;;;;17.73;12.55;;;0.60;99.90;;;;;;4983252;28;20018;-59
2023/01/30 05:49:19;;;;;;;20.58;11.93;;;0.60;99.90;;;;;;4984020;28;20041;-58
2023/01/30 05:51:44;;;;;;;19.85;13.13;;;0.60;99.90;;;;;;4992822;28;20129;-58
2023/01/30 05:54:10;;;;;;;20.90;12.32;;;0.60;99.90;;;;;;4991611;28;20023;-59
2023/01/30 05:56:35;;;;;;;18.98;11.85;;;0.60;99.90;;;;;;4992791;28;20023;-59
2023/01/30 05:59:01;;;;;;;20.65;13.00;;;0.60;99.90;;;;;;4992681;28;20046;-60
2023/01/30 06:01:28;;;;;;;18.25;12.27;;;0.60;99.90;;;;;;4998737;28;20058;-58
2023/01/30 06:03:54;;;;;;;19.95;13.60;;;0.60;99.90;;;;;;4998042;28;20658;-59
2023/01/30 06:06:21;;;;;;;15.60;11.23;;;0.60;99.90;;;;;;5008794;28;20049;-59
2023/01/30 06:08:52;;;;;;;18.60;12.32;;;0.60;99.90;;;;;;5000376;28;20034;-62
2023/01/30 06:11:18;;;;;;;19.52;11.95;;;0.60;99.90;;;;;;4998315;28;20026;-59
2023/01/30 06:13:44;;;;;;;17.85;11.75;;;0.60;99.90;;;;;;5001811;28;20035;-58
2023/01/30 06:16:11;;;;;;;20.10;12.48;;;0.60;99.90;;;;;;4997608;28;20029;-59
2023/01/30 06:18:37;;;;;;;20.13;12.82;;;0.60;99.90;;;;;;4999486;28;20042;-60
2023/01/30 06:21:03;;;;;;;21.25;13.13;;;0.50;99.90;;;;;;4998331;28;20066;-59
2023/01/30 06:23:29;;;;;;;18.45;10.82;;;0.50;99.90;;;;;;4996193;28;20141;-57
2023/01/30 06:25:55;;;;;;;17.42;11.85;;;0.50;99.90;;;;;;4994471;28;20653;-59
2023/01/30 06:28:22;;;;;;;16.67;11.13;;;0.50;99.90;;;;;;4992272;28;20029;-59
2023/01/30 06:30:48;;;;;;;18.45;11.73;;;0.50;99.90;;;;;;4985742;28;20133;-60
2023/01/30 06:33:14;;;;;;;17.42;11.32;;;0.60;99.90;;;;;;4992754;28;20110;-60
2023/01/30 06:35:41;;;;;;;16.73;10.75;;;0.60;99.90;;;;;;4998228;28;20464;-60
2023/01/30 06:38:13;;;;;;;15.68;11.00;;;0.60;99.90;;;;;;4999054;28;20490;-60
2023/01/30 06:40:47;;;;;;;18.58;11.95;;;0.60;99.90;;;;;;4996567;28;20038;-60
2023/01/30 06:43:13;;;;;;;19.83;11.20;;;0.60;99.90;;;;;;4992496;28;20022;-61
2023/01/30 06:45:39;;;;;;;14.18;9.27;;;0.60;99.90;;;;;;4998803;28;20049;-60
2023/01/30 06:48:05;;;;;;;15.45;10.45;;;0.60;99.90;;;;;;4989136;28;20410;-59
2023/01/30 06:50:31;;;;;;;17.35;11.68;;;0.60;99.90;;;;;;4999680;28;20034;-57
2023/01/30 06:52:59;;;;;;;18.23;12.90;;;0.60;99.90;;;;;;4998828;28;20030;-57
2023/01/30 06:55:27;;;;;;;15.70;11.20;;;0.60;99.90;;;;;;4994104;28;20141;-61
2023/01/30 06:58:10;;;;;;;15.18;11.48;;;0.60;99.90;;;;;;4988522;28;20109;-58
2023/01/30 07:00:38;;;;;;;17.50;11.98;;;0.60;99.90;;;;;;4989688;28;20101;-61
2023/01/30 07:03:04;;;;;;;16.25;11.40;;;0.60;99.90;;;;;;4988520;28;20034;-61
2023/01/30 07:05:30;;;;;;;18.17;11.20;;;0.60;99.90;;;;;;4999553;28;20083;-60
2023/01/30 07:07:55;;;;;;;15.35;11.02;;;0.60;99.90;;;;;;4999540;28;20031;-61
2023/01/30 07:10:21;;;;;;;17.88;10.20;;;0.60;99.90;;;;;;4997356;28;20033;-58
2023/01/30 07:12:47;;;;;;;17.90;10.60;;;0.60;99.90;;;;;;4997526;28;20037;-59
2023/01/30 07:15:13;;;;;;;15.32;10.63;;;0.60;99.90;;;;;;4998911;28;20042;-57
2023/01/30 07:17:41;;;;;;;12.23;9.68;;;0.70;99.90;;;;;;5004137;28;20402;-58
2023/01/30 07:20:08;;;;;;;11.82;9.02;;;0.70;99.90;;;;;;4994903;28;20026;-58
2023/01/30 07:22:34;;;;;;;11.27;8.48;;;0.70;99.90;;;;;;4990240;28;20026;-59
2023/01/30 07:25:00;;;;;;;13.05;9.35;;;0.70;99.90;;;;;;4988273;28;20026;-58
2023/01/30 07:27:25;;;;;;;15.95;8.38;;;0.70;99.90;;;;;;4996555;28;20041;-59
2023/01/30 07:29:51;;;;;;;12.15;9.50;;;0.80;99.90;;;;;;5004685;28;20037;-59
2023/01/30 07:32:18;;;;;;;11.55;9.20;;;0.80;99.90;;;;;;4997047;28;20496;-58
2023/01/30 07:34:45;;;;;;;10.98;8.52;;;0.80;99.90;;;;;;5002433;28;20065;-58
2023/01/30 07:37:10;;;;;;;12.18;8.98;;;0.80;99.90;;;;;;5000180;28;20445;-59
2023/01/30 07:39:36;;;;;;;11.77;9.30;;;0.80;99.90;;;;;;5002294;28;20061;-60
2023/01/30 07:42:03;;;;;;;11.27;8.77;;;0.90;99.90;;;;;;4999785;28;20122;-58
2023/01/30 07:44:28;;;;;;;10.23;8.23;;;0.90;99.90;;;;;;4992610;28;20101;-60
2023/01/30 07:46:54;;;;;;;10.48;8.52;;;0.90;99.90;;;;;;4992275;28;20494;-59
2023/01/30 07:49:19;;;;;;;11.48;8.75;;;1.00;99.90;;;;;;5000671;28;20038;-58
2023/01/30 07:51:45;;;;;;;10.00;8.35;;;0.90;99.90;;;;;;5002670;28;20053;-59
2023/01/30 07:54:11;;;;;;;12.65;9.10;;;0.90;99.90;;;;;;5000304;28;20032;-59
2023/01/30 07:56:37;;;;;;;11.98;8.80;;;0.90;99.90;;;;;;4998096;28;20034;-59
2023/01/30 07:59:04;;;;;;;12.93;9.30;;;0.90;99.90;;;;;;4998971;28;20518;-58
2023/01/30 08:01:30;;;;;;;12.88;9.30;;;0.90;99.90;;;;;;5000041;28;20105;-59
2023/01/30 08:03:55;;;;;;;11.18;8.95;;;0.90;99.90;;;;;;5002350;28;20105;-59
2023/01/30 08:06:21;;;;;;;10.55;7.65;;;1.00;99.90;;;;;;4999166;28;20035;-59
2023/01/30 08:08:47;;;;;;;13.38;9.38;;;1.00;99.90;;;;;;4992888;28;20113;-61
2023/01/30 08:11:13;;;;;;;10.18;8.68;;;1.00;99.90;;;;;;4999384;28;20612;-59
2023/01/30 08:13:38;;;;;;;12.73;8.77;;;1.00;99.90;;;;;;5002329;28;20028;-59
2023/01/30 08:16:05;;;;;;;14.70;9.63;;;0.90;99.90;;;;;;4999508;28;20006;-60
2023/01/30 08:18:32;;;;;;;14.00;9.45;;;0.90;99.90;;;;;;5000985;28;20083;-60
2023/01/30 08:21:05;;;;;;;11.75;9.98;;;0.90;99.90;;;;;;5000734;28;20037;-59
2023/01/30 08:23:32;;;;;;;12.77;9.65;;;0.90;99.90;;;;;;4996679;28;20026;-60
2023/01/30 08:25:59;;;;;;;15.60;11.25;;;0.90;99.90;;;;;;4995710;28;20119;-59
2023/01/30 08:28:26;;;;;;;12.57;10.05;;;0.90;99.90;;;;;;4984668;28;20082;-59
2023/01/30 08:30:52;;;;;;;14.20;8.65;;;0.90;99.90;;;;;;4979099;28;20057;-60
2023/01/30 08:33:18;;;;;;;14.05;10.38;;;0.90;99.90;;;;;;4990916;28;20056;-60
2023/01/30 08:35:44;;;;;;;14.63;9.93;;;0.90;99.90;;;;;;4990593;28;20030;-60
2023/01/30 08:38:10;;;;;;;15.60;10.75;;;0.90;99.90;;;;;;4992714;28;20034;-59
2023/01/30 08:40:36;;;;;;;12.15;10.52;;;0.90;99.90;;;;;;4989859;28;20029;-58
2023/01/30 08:43:02;;;;;;;14.77;10.55;;;0.90;99.90;;;;;;4990579;28;20034;-59
2023/01/30 08:45:29;;;;;;;16.38;11.18;;;0.90;99.90;;;;;;4992332;28;20042;-59
2023/01/30 08:48:02;;;;;;;15.55;10.95;;;0.90;99.90;;;;;;4994762;28;20461;-58
2023/01/30 08:50:29;;;;;;;18.35;11.68;;;0.90;99.90;;;;;;4995691;28;20030;-60
2023/01/30 08:52:54;;;;;;;14.20;11.40;;;0.90;99.90;;;;;;4999268;28;20033;-59
2023/01/30 08:55:21;;;;;;;15.55;10.38;;;0.90;99.90;;;;;;4995956;28;20034;-59
2023/01/30 08:57:47;;;;;;;14.90;11.48;;;0.90;99.90;;;;;;4993856;28;20033;-60
2023/01/30 09:00:14;;;;;;;16.35;11.55;;;1.00;99.90;;;;;;4994435;28;20029;-59
2023/01/30 09:02:39;;;;;;;15.60;11.73;;;1.00;99.90;;;;;;4997296;28;20034;-59
2023/01/30 09:05:06;;;;;;;14.55;10.57;;;0.90;99.90;;;;;;4996489;28;20022;-59
2023/01/30 09:07:32;;;;;;;13.13;10.93;;;0.90;99.90;;;;;;4995331;28;20389;-59
2023/01/30 09:09:58;;;;;;;21.25;13.00;;;0.90;99.90;;;;;;4992297;28;20018;-60
2023/01/30 09:12:24;;;;;;;14.07;10.90;;;0.90;99.90;;;;;;4995714;28;20112;-61
2023/01/30 09:14:52;;;;;;;13.73;9.85;;;0.90;99.90;;;;;;4996545;28;20026;-58
2023/01/30 09:17:17;;;;;;;12.18;9.90;;;1.00;99.90;;;;;;4994908;28;20026;-60
2023/01/30 09:19:43;;;;;;;15.73;10.00;;;1.00;99.90;;;;;;4995237;28;20049;-59
2023/01/30 09:22:08;;;;;;;11.73;10.07;;;1.00;99.90;;;;;;4993511;28;20022;-60
2023/01/30 09:24:34;;;;;;;14.05;9.65;;;1.00;99.90;;;;;;5000133;28;20520;-60
2023/01/30 09:27:00;;;;;;;10.68;9.15;;;1.10;99.90;;;;;;4993016;28;20040;-60
2023/01/30 09:29:26;;;;;;;10.80;9.45;;;1.10;99.90;;;;;;4999562;28;20099;-59
2023/01/30 09:31:53;;;;;;;15.05;9.55;;;1.10;99.90;;;;;;4998452;28;20039;-59
2023/01/30 09:34:18;;;;;;;10.52;8.93;;;1.10;99.90;;;;;;5010899;28;20040;-60
2023/01/30 09:36:44;;;;;;;12.73;9.20;;;1.10;99.90;;;;;;4997930;28;20034;-59
2023/01/30 09:39:09;;;;;;;12.88;10.13;;;1.10;99.90;;;;;;5002033;28;20037;-60
2023/01/30 09:42:09;;;;;;;11.35;9.07;;;1.10;99.90;;;;;;4996014;28;20044;-61
2023/01/30 09:45:13;;;;;;;12.02;9.52;;;1.10;99.90;;;;;;4999400;28;20030;-59
2023/01/30 09:48:00;;;;;;;11.43;8.82;;;1.20;99.90;;;;;;4998158;28;20648;-60
2023/01/30 09:50:40;;;;;;;11.20;8.90;;;1.20;99.90;;;;;;4991045;28;20045;-60
2023/01/30 09:53:18;;;;;;;11.43;10.18;;;1.20;99.90;;;;;;4992104;28;20094;-60
2023/01/30 09:55:45;;;;;;;14.60;9.65;;;1.20;99.90;;;;;;4990928;28;20553;-60
2023/01/30 09:58:20;;;;;;;11.73;9.02;;;1.20;99.90;;;;;;4993132;28;20079;-60
2023/01/30 10:00:48;;;;;;;10.73;8.93;;;1.20;99.90;;;;;;4995283;28;20037;-60
2023/01/30 10:03:20;;;;;;;11.07;8.80;;;1.20;99.90;;;;;;4993888;28;20026;-60
2023/01/30 10:06:01;;;;;;;11.88;9.52;;;1.30;99.90;;;;;;4990085;28;20039;-61
2023/01/30 10:08:52;;;;;;;10.63;9.50;;;1.30;99.90;;;;;;4992944;28;20057;-61
2023/01/30 10:11:20;;;;;;;12.75;9.48;;;1.40;99.90;;;;;;4992914;28;20038;-59
2023/01/30 10:14:13;;;;;;;11.25;9.18;;;1.40;99.90;;;;;;4999023;28;20105;-59
2023/01/30 10:17:09;;;;;;;11.73;9.20;;;1.40;99.90;;;;;;4998522;28;20050;-60
2023/01/30 10:19:56;;;;;;;9.52;8.38;;;1.50;99.90;;;;;;4995738;28;20018;-60
2023/01/30 10:22:54;;;;;;;10.30;8.40;;;1.50;99.90;;;;;;4999899;28;20018;-59
2023/01/30 10:25:26;;;;;;;11.27;9.07;;;1.50;99.90;;;;;;4994458;28;20057;-60
2023/01/30 10:28:11;;;;;;;10.68;8.65;;;1.50;99.90;;;;;;4993250;28;20038;-60
2023/01/30 10:30:37;;;;;;;11.23;9.40;;;1.40;99.90;;;;;;4998151;28;20022;-60
2023/01/30 10:33:09;;;;;;;12.60;10.57;;;1.40;99.90;;;;;;4997393;28;20057;-60
2023/01/30 10:35:39;;;;;;;12.25;9.00;;;1.40;99.90;;;;;;4990354;28;20025;-60
2023/01/30 10:38:45;;;;;;;9.40;8.02;;;1.50;99.90;;;;;;4990538;28;20118;-60
2023/01/30 10:41:27;;;;;;;9.48;8.43;;;1.50;99.90;;;;;;4995243;28;20486;-61
2023/01/30 10:44:01;;;;;;;9.82;8.57;;;1.50;99.90;;;;;;5000938;28;20026;-61
2023/01/30 10:46:53;;;;;;;7.32;5.72;;;1.60;99.90;;;;;;4990041;28;20121;-60
2023/01/30 10:49:48;;;;;;;9.07;6.78;;;1.60;99.90;;;;;;4984620;28;20057;-60
2023/01/30 10:52:41;;;;;;;9.65;7.75;;;1.70;99.90;;;;;;4994716;28;20042;-60
2023/01/30 10:55:22;;;;;;;9.00;7.60;;;1.70;99.90;;;;;;4997060;28;20034;-60
2023/01/30 10:57:50;;;;;;;8.93;6.95;;;1.70;99.90;;;;;;4996185;28;20029;-60
2023/01/30 11:00:32;;;;;;;6.85;5.93;;;1.70;99.90;;;;;;4997676;28;20037;-61
2023/01/30 11:03:30;;;;;;;9.98;6.38;;;1.70;99.90;;;;;;5009272;28;20019;-60
2023/01/30 11:06:00;;;;;;;8.45;7.55;;;1.70;99.90;;;;;;4999349;28;20018;-59
2023/01/30 11:08:29;;;;;;;9.77;6.75;;;1.70;99.90;;;;;;5004614;28;20041;-61
2023/01/30 11:10:56;;;;;;;9.05;6.88;;;1.70;99.90;;;;;;5006204;28;20036;-61
2023/01/30 11:13:31;;;;;;;7.25;6.05;;;1.70;99.90;;;;;;5003841;28;20531;-60
2023/01/30 11:16:02;;;;;;;6.40;5.80;;;1.70;99.90;;;;;;5001574;28;20044;-60
2023/01/30 11:18:28;;;;;;;6.57;5.55;;;1.80;99.90;;;;;;4994403;28;20061;-60
2023/01/30 11:21:03;;;;;;;6.40;5.53;;;1.80;99.90;;;;;;4984846;28;20443;-60
2023/01/30 11:23:38;;;;;;;7.00;5.38;;;1.80;99.90;;;;;;4981096;28;20393;-61
2023/01/30 11:26:04;;;;;;;8.50;5.65;;;1.80;99.90;;;;;;4988071;28;20061;-59
2023/01/30 11:28:41;;;;;;;5.60;5.10;;;1.80;99.90;;;;;;4993135;28;20470;-60
2023/01/30 11:31:20;;;;;;;5.75;5.15;;;1.80;99.90;;;;;;4993286;28;20054;-60
2023/01/30 11:34:02;;;;;;;6.13;4.65;;;1.80;99.90;;;;;;4997477;28;20044;-60
2023/01/30 11:36:30;;;;;;;6.88;5.35;;;1.80;99.90;;;;;;5000080;28;20482;-62
2023/01/30 11:39:01;;;;;;;6.63;5.22;;;1.80;99.90;;;;;;5001880;28;20581;-60
2023/01/30 11:41:27;;;;;;;6.03;4.93;;;1.70;99.90;;;;;;5003425;28;20022;-61
2023/01/30 11:44:04;;;;;;;6.00;4.95;;;1.80;99.90;;;;;;4999709;28;20022;-60
2023/01/30 11:46:35;;;;;;;5.32;4.30;;;1.90;99.90;;;;;;4997467;28;20027;-60
2023/01/30 11:49:02;;;;;;;;;;;2.00;99.90;;;;;;5001273;28;20042;-60
2023/01/30 11:51:29;;;;;;;4.28;3.85;;;2.10;99.90;;;;;;5000927;28;20217;-60
2023/01/30 11:54:07;;;;;;;5.35;4.13;;;2.20;99.90;;;;;;4994845;28;20116;-61
2023/01/30 11:56:34;;;;;;;4.85;3.90;;;2.20;99.90;;;;;;5010662;28;20034;-60
2023/01/30 11:59:35;;;;;;;4.97;4.18;;;2.20;99.90;;;;;;4999605;28;20117;-60
2023/01/30 12:02:23;;;;;;;5.22;4.20;;;2.20;99.90;;;;;;4995321;28;20034;-60
2023/01/30 12:04:55;;;;;;;6.25;4.60;;;2.10;99.90;;;;;;4985180;28;20077;-60
2023/01/30 12:07:27;;;;;;;5.75;4.22;;;2.10;99.90;;;;;;5000361;28;20026;-60
2023/01/30 12:09:54;;;;;;;5.13;4.20;;;2.10;99.90;;;;;;4999235;28;20045;-60
2023/01/30 12:12:32;;;;;;;5.10;4.60;;;2.10;99.90;;;;;;4996694;28;20053;-60
2023/01/30 12:15:26;;;;;;;4.85;4.35;;;2.20;99.90;;;;;;4995111;28;20042;-60
2023/01/30 12:17:56;;;;;;;4.57;4.18;;;2.30;99.90;;;;;;4993366;28;20042;-60
2023/01/30 12:20:34;;;;;;;3.75;3.33;;;2.40;99.90;;;;;;4995266;28;20030;-61
2023/01/30 12:23:37;;;;;;;4.22;3.45;;;2.60;99.90;;;;;;4991782;28;20029;-60
2023/01/30 12:26:03;;;;;;;3.45;3.10;;;2.70;99.90;;;;;;4999528;28;20571;-60
2023/01/30 12:29:06;;;;;;;2.85;2.40;;;2.80;99.90;;;;;;5000194;28;20030;-61
2023/01/30 12:31:38;;;;;;;3.10;2.55;;;2.80;99.90;;;;;;5013729;28;20053;-60
2023/01/30 12:34:03;;;;;;;3.10;2.53;;;2.80;99.90;;;;;;4997299;28;20168;-60
2023/01/30 12:37:13;;;;;;;3.15;2.72;;;2.80;99.90;;;;;;4995749;28;20133;-60
2023/01/30 12:39:55;;;;;;;3.20;2.67;;;3.00;99.90;;;;;;4998246;28;20083;-60
2023/01/30 12:42:53;;;;;;;3.50;2.75;;;3.20;99.90;;;;;;4994246;28;20088;-60
2023/01/30 12:45:57;;;;;;;3.00;2.67;;;3.30;99.90;;;;;;5000568;28;20680;-60
2023/01/30 12:48:33;;;;;;;3.63;3.30;;;3.30;99.90;;;;;;4992964;28;20891;-60
2023/01/30 12:51:13;;;;;;;4.38;3.42;;;3.20;99.90;;;;;;4998151;28;20038;-60
2023/01/30 12:54:11;;;;;;;2.80;2.50;;;3.10;99.90;;;;;;4997829;28;20023;-61
2023/01/30 12:56:40;;;;;;;2.88;2.58;;;2.90;99.90;;;;;;5009910;28;20038;-60
2023/01/30 12:59:14;;;;;;;4.43;3.05;;;2.80;99.90;;;;;;4993788;28;20088;-61
2023/01/30 13:01:55;;;;;;;4.00;3.00;;;2.70;99.90;;;;;;4992119;28;20029;-60
2023/01/30 13:04:29;;;;;;;3.70;2.67;;;2.60;99.90;;;;;;5012546;28;20033;-60
2023/01/30 13:07:17;;;;;;;3.85;2.92;;;2.60;99.90;;;;;;4996045;28;20494;-60
2023/01/30 13:09:43;;;;;;;4.65;3.55;;;2.60;99.90;;;;;;5008691;28;20333;-60
2023/01/30 13:12:15;;;;;;;4.07;3.30;;;2.60;99.90;;;;;;4995537;28;20023;-60